sensor_id;sensor_type;location;lat;lon;timestamp;temperature;humidity
9305;DHT22;4690;52.422;13.486;2023-01-16T00:04:21;4.90;99.90
9305;DHT22;4690;52.422;13.486;2023-01-16T00:06:48;4.80;99.90
9305;DHT22;4690;52.422;13.486;2023-01-16T00:09:14;4.80;99.90
9305;DHT22;4690;52.422;13.486;2023-01-16T00:11:39;4.80;99.90
9305;DHT22;4690;52.422;13.486;2023-01-16T00:14:06;4.80;99.90
9305;DHT22;4690;52.422;13.486;2023-01-16T00:16:32;4.70;99.90
9305;DHT22;4690;52.422;13.486;2023-01-16T00:18:58;4.70;99.90
9305;DHT22;4690;52.422;13.486;2023-01-16T00:21:24;4.70;99.90
9305;DHT22;4690;52.422;13.486;2023-01-16T00:23:55;4.70;99.90
9305;DHT22;4690;52.422;13.486;2023-01-16T00:26:23;4.70;99.90
9305;DHT22;4690;52.422;13.486;2023-01-16T00:28:50;4.60;99.90
9305;DHT22;4690;52.422;13.486;2023-01-16T00:31:16;4.60;99.90
9305;DHT22;4690;52.422;13.486;2023-01-16T00:33:42;4.50;99.90
9305;DHT22;4690;52.422;13.486;2023-01-16T00:36:11;4.60;99.90
9305;DHT22;4690;52.422;13.486;2023-01-16T00:38:38;4.50;99.90
9305;DHT22;4690;52.422;13.486;2023-01-16T00:41:04;4.50;99.90
9305;DHT22;4690;52.422;13.486;2023-01-16T00:43:31;4.60;99.90
9305;DHT22;4690;52.422;13.486;2023-01-16T00:45:57;4.50;99.90
9305;DHT22;4690;52.422;13.486;2023-01-16T00:48:23;4.50;99.90
9305;DHT22;4690;52.422;13.486;2023-01-16T00:50:49;4.40;99.90
9305;DHT22;4690;52.422;13.486;2023-01-16T00:53:15;4.40;99.90
9305;DHT22;4690;52.422;13.486;2023-01-16T00:55:41;4.40;99.90
9305;DHT22;4690;52.422;13.486;2023-01-16T00:58:10;4.40;99.90
9305;DHT22;4690;52.422;13.486;2023-01-16T01:00:37;4.40;99.90
9305;DHT22;4690;52.422;13.486;2023-01-16T01:03:04;4.30;99.90
9305;DHT22;4690;52.422;13.486;2023-01-16T01:05:30;4.40;99.90
9305;DHT22;4690;52.422;13.486;2023-01-16T01:08:00;4.30;99.90
9305;DHT22;4690;52.422;13.486;2023-01-16T01:10:26;4.30;99.90
9305;DHT22;4690;52.422;13.486;2023-01-16T01:12:55;4.20;99.90
9305;DHT22;4690;52.422;13.486;2023-01-16T01:15:21;4.20;99.90
9305;DHT22;4690;52.422;13.486;2023-01-16T01:17:48;4.10;99.90
9305;DHT22;4690;52.422;13.486;2023-01-16T01:20:14;4.10;99.90
9305;DHT22;4690;52.422;13.486;2023-01-16T01:22:40;4.10;99.90
9305;DHT22;4690;52.422;13.486;2023-01-16T01:25:06;4.00;99.90
9305;DHT22;4690;52.422;13.486;2023-01-16T01:27:32;4.00;99.90
9305;DHT22;4690;52.422;13.486;2023-01-16T01:29:57;4.00;99.90
9305;DHT22;4690;52.422;13.486;2023-01-16T01:32:23;3.90;99.90
9305;DHT22;4690;52.422;13.486;2023-01-16T01:34:49;3.90;99.90
9305;DHT22;4690;52.422;13.486;2023-01-16T01:37:14;3.90;99.90
9305;DHT22;4690;52.422;13.486;2023-01-16T01:39:40;3.80;99.90
9305;DHT22;4690;52.422;13.486;2023-01-16T01:42:10;3.80;99.90
9305;DHT22;4690;52.422;13.486;2023-01-16T01:44:57;3.80;99.90
9305;DHT22;4690;52.422;13.486;2023-01-16T01:47:34;3.80;99.90
9305;DHT22;4690;52.422;13.486;2023-01-16T01:50:13;3.80;99.90
9305;DHT22;4690;52.422;13.486;2023-01-16T01:52:44;3.80;99.90
9305;DHT22;4690;52.422;13.486;2023-01-16T01:55:11;3.80;99.90
9305;DHT22;4690;52.422;13.486;2023-01-16T01:57:45;3.70;99.90
9305;DHT22;4690;52.422;13.486;2023-01-16T02:00:18;3.70;99.90
9305;DHT22;4690;52.422;13.486;2023-01-16T02:05:35;3.60;99.90
9305;DHT22;4690;52.422;13.486;2023-01-16T02:08:12;3.60;99.90
9305;DHT22;4690;52.422;13.486;2023-01-16T02:10:43;3.60;99.90
9305;DHT22;4690;52.422;13.486;2023-01-16T02:13:13;3.60;99.90
9305;DHT22;4690;52.422;13.486;2023-01-16T02:15:39;3.60;99.90
9305;DHT22;4690;52.422;13.486;2023-01-16T02:18:28;3.60;99.90
9305;DHT22;4690;52.422;13.486;2023-01-16T02:41:47;3.60;99.90
9305;DHT22;4690;52.422;13.486;2023-01-16T02:52:55;3.40;99.90
9305;DHT22;4690;52.422;13.486;2023-01-16T02:55:29;3.40;99.90
9305;DHT22;4690;52.422;13.486;2023-01-16T02:58:01;3.30;99.90
9305;DHT22;4690;52.422;13.486;2023-01-16T03:00:30;3.30;99.90
9305;DHT22;4690;52.422;13.486;2023-01-16T03:02:57;3.20;99.90
9305;DHT22;4690;52.422;13.486;2023-01-16T03:05:23;3.20;99.90
9305;DHT22;4690;52.422;13.486;2023-01-16T03:13:43;3.20;99.90
9305;DHT22;4690;52.422;13.486;2023-01-16T03:19:04;3.30;99.90
9305;DHT22;4690;52.422;13.486;2023-01-16T03:22:16;3.20;99.90
9305;DHT22;4690;52.422;13.486;2023-01-16T03:37:04;3.20;99.90
9305;DHT22;4690;52.422;13.486;2023-01-16T03:39:41;3.20;99.90
9305;DHT22;4690;52.422;13.486;2023-01-16T03:42:18;3.10;99.90
9305;DHT22;4690;52.422;13.486;2023-01-16T03:44:55;3.20;99.90
9305;DHT22;4690;52.422;13.486;2023-01-16T03:47:41;3.20;99.90
9305;DHT22;4690;52.422;13.486;2023-01-16T03:50:14;3.10;99.90
9305;DHT22;4690;52.422;13.486;2023-01-16T03:52:50;3.00;99.90
9305;DHT22;4690;52.422;13.486;2023-01-16T03:55:29;3.00;99.90
9305;DHT22;4690;52.422;13.486;2023-01-16T03:58:05;3.10;99.90
9305;DHT22;4690;52.422;13.486;2023-01-16T04:03:18;3.20;99.90
9305;DHT22;4690;52.422;13.486;2023-01-16T04:08:51;3.30;99.90
9305;DHT22;4690;52.422;13.486;2023-01-16T04:11:23;3.30;99.90
9305;DHT22;4690;52.422;13.486;2023-01-16T04:13:53;3.30;99.90
9305;DHT22;4690;52.422;13.486;2023-01-16T04:16:22;3.30;99.90
9305;DHT22;4690;52.422;13.486;2023-01-16T04:18:49;3.30;99.90
9305;DHT22;4690;52.422;13.486;2023-01-16T04:21:18;3.30;99.90
9305;DHT22;4690;52.422;13.486;2023-01-16T04:23:44;3.30;99.90
9305;DHT22;4690;52.422;13.486;2023-01-16T04:26:10;3.30;99.90
9305;DHT22;4690;52.422;13.486;2023-01-16T04:28:36;3.30;99.90
9305;DHT22;4690;52.422;13.486;2023-01-16T04:31:01;3.30;99.90
9305;DHT22;4690;52.422;13.486;2023-01-16T04:33:27;3.20;99.90
9305;DHT22;4690;52.422;13.486;2023-01-16T04:35:53;3.20;99.90
9305;DHT22;4690;52.422;13.486;2023-01-16T04:38:19;3.20;99.90
9305;DHT22;4690;52.422;13.486;2023-01-16T04:40:44;3.10;99.90
9305;DHT22;4690;52.422;13.486;2023-01-16T04:43:10;3.10;99.90
9305;DHT22;4690;52.422;13.486;2023-01-16T04:45:36;3.00;99.90
9305;DHT22;4690;52.422;13.486;2023-01-16T04:48:01;3.00;99.90
9305;DHT22;4690;52.422;13.486;2023-01-16T04:50:27;2.90;99.90
9305;DHT22;4690;52.422;13.486;2023-01-16T04:52:53;2.90;99.90
9305;DHT22;4690;52.422;13.486;2023-01-16T04:55:19;2.90;99.90
9305;DHT22;4690;52.422;13.486;2023-01-16T04:57:46;2.90;99.90
9305;DHT22;4690;52.422;13.486;2023-01-16T05:00:12;2.80;99.90
9305;DHT22;4690;52.422;13.486;2023-01-16T05:02:38;2.80;99.90
9305;DHT22;4690;52.422;13.486;2023-01-16T05:05:04;2.80;99.90
9305;DHT22;4690;52.422;13.486;2023-01-16T05:07:30;2.80;99.90
9305;DHT22;4690;52.422;13.486;2023-01-16T05:09:55;2.80;99.90
9305;DHT22;4690;52.422;13.486;2023-01-16T05:12:22;2.80;99.90
9305;DHT22;4690;52.422;13.486;2023-01-16T05:14:47;2.80;99.90
9305;DHT22;4690;52.422;13.486;2023-01-16T05:17:13;2.80;99.90
9305;DHT22;4690;52.422;13.486;2023-01-16T05:19:39;2.80;99.90
9305;DHT22;4690;52.422;13.486;2023-01-16T05:22:05;2.80;99.90
9305;DHT22;4690;52.422;13.486;2023-01-16T05:24:31;2.80;99.90
9305;DHT22;4690;52.422;13.486;2023-01-16T05:26:57;2.80;99.90
9305;DHT22;4690;52.422;13.486;2023-01-16T05:29:23;2.80;99.90
9305;DHT22;4690;52.422;13.486;2023-01-16T05:31:48;2.80;99.90
9305;DHT22;4690;52.422;13.486;2023-01-16T05:34:14;2.80;99.90
9305;DHT22;4690;52.422;13.486;2023-01-16T05:36:40;2.80;99.90
9305;DHT22;4690;52.422;13.486;2023-01-16T05:39:05;2.90;99.90
9305;DHT22;4690;52.422;13.486;2023-01-16T05:41:31;2.90;99.90
9305;DHT22;4690;52.422;13.486;2023-01-16T05:43:57;2.90;99.90
9305;DHT22;4690;52.422;13.486;2023-01-16T05:46:23;3.00;99.90
9305;DHT22;4690;52.422;13.486;2023-01-16T05:48:49;3.00;99.90
9305;DHT22;4690;52.422;13.486;2023-01-16T05:51:15;3.00;99.90
9305;DHT22;4690;52.422;13.486;2023-01-16T05:53:42;3.00;99.90
9305;DHT22;4690;52.422;13.486;2023-01-16T05:56:09;3.00;99.90
9305;DHT22;4690;52.422;13.486;2023-01-16T05:58:36;3.00;99.90
9305;DHT22;4690;52.422;13.486;2023-01-16T06:01:03;3.10;99.90
9305;DHT22;4690;52.422;13.486;2023-01-16T06:03:29;3.10;99.90
9305;DHT22;4690;52.422;13.486;2023-01-16T06:05:54;3.10;99.90
9305;DHT22;4690;52.422;13.486;2023-01-16T06:08:20;3.10;99.90
9305;DHT22;4690;52.422;13.486;2023-01-16T06:10:46;3.20;99.90
9305;DHT22;4690;52.422;13.486;2023-01-16T06:13:13;3.20;99.90
9305;DHT22;4690;52.422;13.486;2023-01-16T06:15:39;3.20;99.90
9305;DHT22;4690;52.422;13.486;2023-01-16T06:18:05;3.30;99.90
9305;DHT22;4690;52.422;13.486;2023-01-16T06:20:31;3.30;99.90
9305;DHT22;4690;52.422;13.486;2023-01-16T06:22:56;3.30;99.90
9305;DHT22;4690;52.422;13.486;2023-01-16T06:25:22;3.40;99.90
9305;DHT22;4690;52.422;13.486;2023-01-16T06:27:52;3.40;99.90
9305;DHT22;4690;52.422;13.486;2023-01-16T06:30:17;3.40;99.90
9305;DHT22;4690;52.422;13.486;2023-01-16T06:32:47;3.40;99.90
9305;DHT22;4690;52.422;13.486;2023-01-16T06:35:14;3.40;99.90
9305;DHT22;4690;52.422;13.486;2023-01-16T06:37:40;3.40;99.90
9305;DHT22;4690;52.422;13.486;2023-01-16T06:40:06;3.40;99.90
9305;DHT22;4690;52.422;13.486;2023-01-16T06:42:33;3.40;99.90
9305;DHT22;4690;52.422;13.486;2023-01-16T06:44:58;3.40;99.90
9305;DHT22;4690;52.422;13.486;2023-01-16T06:47:24;3.40;99.90
9305;DHT22;4690;52.422;13.486;2023-01-16T06:49:50;3.40;99.90
9305;DHT22;4690;52.422;13.486;2023-01-16T06:52:16;3.40;99.90
9305;DHT22;4690;52.422;13.486;2023-01-16T06:54:41;3.30;99.90
9305;DHT22;4690;52.422;13.486;2023-01-16T06:57:07;3.30;99.90
9305;DHT22;4690;52.422;13.486;2023-01-16T06:59:33;3.30;99.90
9305;DHT22;4690;52.422;13.486;2023-01-16T07:01:58;3.30;99.90
9305;DHT22;4690;52.422;13.486;2023-01-16T07:04:24;3.30;99.90
9305;DHT22;4690;52.422;13.486;2023-01-16T07:06:50;3.30;99.90
9305;DHT22;4690;52.422;13.486;2023-01-16T07:09:16;3.30;99.90
9305;DHT22;4690;52.422;13.486;2023-01-16T07:11:42;3.20;99.90
9305;DHT22;4690;52.422;13.486;2023-01-16T07:14:08;3.20;99.90
9305;DHT22;4690;52.422;13.486;2023-01-16T07:16:52;3.20;99.90
9305;DHT22;4690;52.422;13.486;2023-01-16T07:19:37;3.20;99.90
9305;DHT22;4690;52.422;13.486;2023-01-16T07:22:21;3.20;99.90
9305;DHT22;4690;52.422;13.486;2023-01-16T07:25:21;3.20;99.90
9305;DHT22;4690;52.422;13.486;2023-01-16T07:27:50;3.20;99.90
9305;DHT22;4690;52.422;13.486;2023-01-16T07:30:18;3.30;99.90
9305;DHT22;4690;52.422;13.486;2023-01-16T07:32:46;3.30;99.90
9305;DHT22;4690;52.422;13.486;2023-01-16T07:35:13;3.30;99.90
9305;DHT22;4690;52.422;13.486;2023-01-16T07:37:39;3.30;99.90
9305;DHT22;4690;52.422;13.486;2023-01-16T07:40:05;3.30;99.90
9305;DHT22;4690;52.422;13.486;2023-01-16T07:42:32;3.30;99.90
9305;DHT22;4690;52.422;13.486;2023-01-16T07:44:58;3.30;99.90
9305;DHT22;4690;52.422;13.486;2023-01-16T07:47:23;3.40;99.90
9305;DHT22;4690;52.422;13.486;2023-01-16T07:49:49;3.40;99.90
9305;DHT22;4690;52.422;13.486;2023-01-16T07:52:15;3.40;99.90
9305;DHT22;4690;52.422;13.486;2023-01-16T07:54:42;3.50;99.90
9305;DHT22;4690;52.422;13.486;2023-01-16T07:57:08;3.50;99.90
9305;DHT22;4690;52.422;13.486;2023-01-16T07:59:34;3.50;99.90
9305;DHT22;4690;52.422;13.486;2023-01-16T08:02:00;3.60;99.90
9305;DHT22;4690;52.422;13.486;2023-01-16T08:04:27;3.50;99.90
9305;DHT22;4690;52.422;13.486;2023-01-16T08:06:53;3.60;99.90
9305;DHT22;4690;52.422;13.486;2023-01-16T08:09:19;3.60;99.90
9305;DHT22;4690;52.422;13.486;2023-01-16T08:11:44;3.60;99.90
9305;DHT22;4690;52.422;13.486;2023-01-16T08:14:12;3.60;99.90
9305;DHT22;4690;52.422;13.486;2023-01-16T08:16:39;3.60;99.90
9305;DHT22;4690;52.422;13.486;2023-01-16T08:19:04;3.60;99.90
9305;DHT22;4690;52.422;13.486;2023-01-16T08:21:30;3.60;99.90
9305;DHT22;4690;52.422;13.486;2023-01-16T08:23:56;3.60;99.90
9305;DHT22;4690;52.422;13.486;2023-01-16T08:26:22;3.60;99.90
9305;DHT22;4690;52.422;13.486;2023-01-16T08:28:48;3.60;99.90
9305;DHT22;4690;52.422;13.486;2023-01-16T08:31:14;3.60;99.90
9305;DHT22;4690;52.422;13.486;2023-01-16T08:33:42;3.60;99.90
9305;DHT22;4690;52.422;13.486;2023-01-16T08:36:10;3.70;99.90
9305;DHT22;4690;52.422;13.486;2023-01-16T08:38:37;3.70;99.90
9305;DHT22;4690;52.422;13.486;2023-01-16T08:41:03;3.70;99.90
9305;DHT22;4690;52.422;13.486;2023-01-16T08:43:30;3.70;99.90
9305;DHT22;4690;52.422;13.486;2023-01-16T08:46:22;3.80;99.90
9305;DHT22;4690;52.422;13.486;2023-01-16T08:49:11;3.90;99.90
9305;DHT22;4690;52.422;13.486;2023-01-16T08:51:58;4.00;99.90
9305;DHT22;4690;52.422;13.486;2023-01-16T08:54:24;4.00;99.90
9305;DHT22;4690;52.422;13.486;2023-01-16T08:56:50;4.00;99.90
9305;DHT22;4690;52.422;13.486;2023-01-16T08:59:16;3.90;99.90
9305;DHT22;4690;52.422;13.486;2023-01-16T09:01:42;3.80;99.90
9305;DHT22;4690;52.422;13.486;2023-01-16T09:04:08;3.80;99.90
9305;DHT22;4690;52.422;13.486;2023-01-16T09:06:34;3.70;99.90
9305;DHT22;4690;52.422;13.486;2023-01-16T09:09:04;3.70;99.90
9305;DHT22;4690;52.422;13.486;2023-01-16T09:11:34;3.70;99.90
9305;DHT22;4690;52.422;13.486;2023-01-16T09:14:19;3.70;99.90
9305;DHT22;4690;52.422;13.486;2023-01-16T09:16:45;3.70;99.90
9305;DHT22;4690;52.422;13.486;2023-01-16T09:19:11;3.70;99.90
9305;DHT22;4690;52.422;13.486;2023-01-16T09:21:37;3.80;99.90
9305;DHT22;4690;52.422;13.486;2023-01-16T09:24:04;3.80;99.90
9305;DHT22;4690;52.422;13.486;2023-01-16T09:26:30;3.90;99.90
9305;DHT22;4690;52.422;13.486;2023-01-16T09:28:56;4.00;99.90
9305;DHT22;4690;52.422;13.486;2023-01-16T09:31:22;4.00;99.90
9305;DHT22;4690;52.422;13.486;2023-01-16T09:33:48;4.10;99.90
9305;DHT22;4690;52.422;13.486;2023-01-16T09:36:15;4.30;99.90
9305;DHT22;4690;52.422;13.486;2023-01-16T09:38:40;4.40;99.90
9305;DHT22;4690;52.422;13.486;2023-01-16T09:41:13;4.40;99.90
9305;DHT22;4690;52.422;13.486;2023-01-16T09:44:04;4.50;99.90
9305;DHT22;4690;52.422;13.486;2023-01-16T09:46:44;4.50;99.90
9305;DHT22;4690;52.422;13.486;2023-01-16T09:49:28;4.70;99.90
9305;DHT22;4690;52.422;13.486;2023-01-16T09:52:19;4.80;99.90
9305;DHT22;4690;52.422;13.486;2023-01-16T09:55:19;4.80;99.90
9305;DHT22;4690;52.422;13.486;2023-01-16T09:58:13;5.00;99.90
9305;DHT22;4690;52.422;13.486;2023-01-16T10:01:07;5.10;99.90
9305;DHT22;4690;52.422;13.486;2023-01-16T10:04:18;5.30;99.90
9305;DHT22;4690;52.422;13.486;2023-01-16T10:10:06;5.60;99.90
9305;DHT22;4690;52.422;13.486;2023-01-16T10:16:17;5.80;99.90
9305;DHT22;4690;52.422;13.486;2023-01-16T10:25:11;6.10;99.90
9305;DHT22;4690;52.422;13.486;2023-01-16T10:28:05;6.10;99.90
9305;DHT22;4690;52.422;13.486;2023-01-16T10:30:50;6.20;99.90
9305;DHT22;4690;52.422;13.486;2023-01-16T10:33:35;6.30;99.90
9305;DHT22;4690;52.422;13.486;2023-01-16T10:36:10;6.30;99.90
9305;DHT22;4690;52.422;13.486;2023-01-16T10:38:47;6.30;99.90
9305;DHT22;4690;52.422;13.486;2023-01-16T10:41:29;6.30;99.90
9305;DHT22;4690;52.422;13.486;2023-01-16T10:44:34;6.40;99.90
9305;DHT22;4690;52.422;13.486;2023-01-16T10:47:27;6.40;99.90
9305;DHT22;4690;52.422;13.486;2023-01-16T10:50:15;6.50;99.90
9305;DHT22;4690;52.422;13.486;2023-01-16T10:52:42;6.60;99.90
9305;DHT22;4690;52.422;13.486;2023-01-16T10:55:09;6.70;99.90
9305;DHT22;4690;52.422;13.486;2023-01-16T10:57:45;6.80;99.90
9305;DHT22;4690;52.422;13.486;2023-01-16T11:00:21;6.80;99.90
9305;DHT22;4690;52.422;13.486;2023-01-16T11:02:58;6.90;99.90
9305;DHT22;4690;52.422;13.486;2023-01-16T11:05:34;6.90;99.90
9305;DHT22;4690;52.422;13.486;2023-01-16T11:08:10;6.90;99.90
9305;DHT22;4690;52.422;13.486;2023-01-16T11:10:38;7.00;99.90
9305;DHT22;4690;52.422;13.486;2023-01-16T11:13:22;7.00;99.90
9305;DHT22;4690;52.422;13.486;2023-01-16T11:18:57;7.10;99.90
9305;DHT22;4690;52.422;13.486;2023-01-16T11:21:28;7.30;99.90
9305;DHT22;4690;52.422;13.486;2023-01-16T11:23:59;7.20;99.90
9305;DHT22;4690;52.422;13.486;2023-01-16T11:26:51;7.30;99.90
9305;DHT22;4690;52.422;13.486;2023-01-16T11:29:20;7.30;99.90
9305;DHT22;4690;52.422;13.486;2023-01-16T11:31:55;7.50;99.90
9305;DHT22;4690;52.422;13.486;2023-01-16T11:34:25;7.70;99.90
9305;DHT22;4690;52.422;13.486;2023-01-16T11:36:56;7.80;99.90
9305;DHT22;4690;52.422;13.486;2023-01-16T11:39:27;7.90;99.90
9305;DHT22;4690;52.422;13.486;2023-01-16T11:41:57;7.80;99.90
9305;DHT22;4690;52.422;13.486;2023-01-16T11:44:35;8.10;99.90
9305;DHT22;4690;52.422;13.486;2023-01-16T11:47:26;8.10;99.90
9305;DHT22;4690;52.422;13.486;2023-01-16T11:49:53;8.10;99.90
9305;DHT22;4690;52.422;13.486;2023-01-16T11:52:21;8.10;99.90
9305;DHT22;4690;52.422;13.486;2023-01-16T11:54:58;8.10;99.90
9305;DHT22;4690;52.422;13.486;2023-01-16T11:57:46;8.30;99.90
9305;DHT22;4690;52.422;13.486;2023-01-16T12:03:29;8.30;99.90
9305;DHT22;4690;52.422;13.486;2023-01-16T12:06:24;8.40;99.90
9305;DHT22;4690;52.422;13.486;2023-01-16T12:09:41;8.40;99.90
9305;DHT22;4690;52.422;13.486;2023-01-16T12:15:20;8.40;99.90
9305;DHT22;4690;52.422;13.486;2023-01-16T12:42:40;8.50;99.90
9305;DHT22;4690;52.422;13.486;2023-01-16T12:45:52;8.30;99.90
9305;DHT22;4690;52.422;13.486;2023-01-16T12:58:56;8.10;99.90
9305;DHT22;4690;52.422;13.486;2023-01-16T13:01:36;8.10;99.90
9305;DHT22;4690;52.422;13.486;2023-01-16T13:04:19;8.00;99.90
9305;DHT22;4690;52.422;13.486;2023-01-16T13:06:53;7.90;99.90
9305;DHT22;4690;52.422;13.486;2023-01-16T13:09:35;7.90;99.90
9305;DHT22;4690;52.422;13.486;2023-01-16T13:12:10;7.90;99.90
9305;DHT22;4690;52.422;13.486;2023-01-16T13:15:09;7.90;99.90
9305;DHT22;4690;52.422;13.486;2023-01-16T13:17:47;7.90;99.90
9305;DHT22;4690;52.422;13.486;2023-01-16T13:20:18;7.80;99.90
9305;DHT22;4690;52.422;13.486;2023-01-16T13:22:58;7.80;99.90
9305;DHT22;4690;52.422;13.486;2023-01-16T13:25:37;7.80;99.90
9305;DHT22;4690;52.422;13.486;2023-01-16T13:28:17;7.90;99.90
9305;DHT22;4690;52.422;13.486;2023-01-16T13:30:45;7.80;99.90
9305;DHT22;4690;52.422;13.486;2023-01-16T13:33:16;7.80;99.90
9305;DHT22;4690;52.422;13.486;2023-01-16T13:41:46;7.80;99.90
9305;DHT22;4690;52.422;13.486;2023-01-16T13:44:20;7.70;99.90
9305;DHT22;4690;52.422;13.486;2023-01-16T13:47:17;7.70;99.90
9305;DHT22;4690;52.422;13.486;2023-01-16T13:49:52;7.70;99.90
9305;DHT22;4690;52.422;13.486;2023-01-16T13:52:22;7.70;99.90
9305;DHT22;4690;52.422;13.486;2023-01-16T13:54:55;7.60;99.90
9305;DHT22;4690;52.422;13.486;2023-01-16T13:57:25;7.60;99.90
9305;DHT22;4690;52.422;13.486;2023-01-16T14:00:00;7.50;99.90
9305;DHT22;4690;52.422;13.486;2023-01-16T14:02:41;7.50;99.90
9305;DHT22;4690;52.422;13.486;2023-01-16T14:08:19;7.40;99.90
9305;DHT22;4690;52.422;13.486;2023-01-16T14:14:22;7.30;99.90
9305;DHT22;4690;52.422;13.486;2023-01-16T14:17:09;7.20;99.90
9305;DHT22;4690;52.422;13.486;2023-01-16T14:20:02;7.20;99.90
9305;DHT22;4690;52.422;13.486;2023-01-16T14:22:36;7.10;99.90
9305;DHT22;4690;52.422;13.486;2023-01-16T14:25:20;7.10;99.90
9305;DHT22;4690;52.422;13.486;2023-01-16T14:27:50;7.10;99.90
9305;DHT22;4690;52.422;13.486;2023-01-16T14:30:28;7.00;99.90
9305;DHT22;4690;52.422;13.486;2023-01-16T14:32:59;7.00;99.90
9305;DHT22;4690;52.422;13.486;2023-01-16T14:35:44;6.90;99.90
9305;DHT22;4690;52.422;13.486;2023-01-16T14:38:15;6.90;99.90
9305;DHT22;4690;52.422;13.486;2023-01-16T14:44:12;6.80;99.90
9305;DHT22;4690;52.422;13.486;2023-01-16T14:50:14;6.80;99.90
9305;DHT22;4690;52.422;13.486;2023-01-16T14:58:48;6.60;99.90
9305;DHT22;4690;52.422;13.486;2023-01-16T15:01:26;6.50;99.90
9305;DHT22;4690;52.422;13.486;2023-01-16T15:04:18;6.50;99.90
9305;DHT22;4690;52.422;13.486;2023-01-16T15:06:57;6.50;99.90
9305;DHT22;4690;52.422;13.486;2023-01-16T15:09:29;6.40;99.90
9305;DHT22;4690;52.422;13.486;2023-01-16T15:12:09;6.30;99.90
9305;DHT22;4690;52.422;13.486;2023-01-16T15:14:58;6.30;99.90
9305;DHT22;4690;52.422;13.486;2023-01-16T15:17:28;6.20;99.90
9305;DHT22;4690;52.422;13.486;2023-01-16T15:20:27;6.10;99.90
9305;DHT22;4690;52.422;13.486;2023-01-16T15:23:22;6.10;99.90
9305;DHT22;4690;52.422;13.486;2023-01-16T15:31:45;6.00;99.90
9305;DHT22;4690;52.422;13.486;2023-01-16T15:34:26;6.00;99.90
9305;DHT22;4690;52.422;13.486;2023-01-16T15:36:55;6.00;99.90
9305;DHT22;4690;52.422;13.486;2023-01-16T15:45:22;5.90;99.90
9305;DHT22;4690;52.422;13.486;2023-01-16T15:51:15;5.80;99.90
9305;DHT22;4690;52.422;13.486;2023-01-16T15:53:47;5.70;99.90
9305;DHT22;4690;52.422;13.486;2023-01-16T15:56:32;5.70;99.90
9305;DHT22;4690;52.422;13.486;2023-01-16T15:59:01;5.70;99.90
9305;DHT22;4690;52.422;13.486;2023-01-16T16:01:30;5.70;99.90
9305;DHT22;4690;52.422;13.486;2023-01-16T16:04:02;5.70;99.90
9305;DHT22;4690;52.422;13.486;2023-01-16T16:06:30;5.60;99.90
9305;DHT22;4690;52.422;13.486;2023-01-16T16:09:03;5.60;99.90
9305;DHT22;4690;52.422;13.486;2023-01-16T16:11:31;5.60;99.90
9305;DHT22;4690;52.422;13.486;2023-01-16T16:14:24;5.50;99.90
9305;DHT22;4690;52.422;13.486;2023-01-16T16:20:36;5.60;99.90
9305;DHT22;4690;52.422;13.486;2023-01-16T16:23:15;5.50;99.90
9305;DHT22;4690;52.422;13.486;2023-01-16T16:25:59;5.50;99.90
9305;DHT22;4690;52.422;13.486;2023-01-16T16:28:34;5.50;99.90
9305;DHT22;4690;52.422;13.486;2023-01-16T16:34:05;5.40;99.90
9305;DHT22;4690;52.422;13.486;2023-01-16T16:36:43;5.40;99.90
9305;DHT22;4690;52.422;13.486;2023-01-16T16:39:27;5.30;99.90
9305;DHT22;4690;52.422;13.486;2023-01-16T16:45:21;5.30;99.90
9305;DHT22;4690;52.422;13.486;2023-01-16T16:48:19;5.20;99.90
9305;DHT22;4690;52.422;13.486;2023-01-16T16:50:49;5.20;99.90
9305;DHT22;4690;52.422;13.486;2023-01-16T16:53:25;5.30;99.90
9305;DHT22;4690;52.422;13.486;2023-01-16T16:56:07;5.30;99.90
9305;DHT22;4690;52.422;13.486;2023-01-16T16:58:43;5.20;99.90
9305;DHT22;4690;52.422;13.486;2023-01-16T17:01:16;5.20;99.90
9305;DHT22;4690;52.422;13.486;2023-01-16T17:03:46;5.20;99.90
9305;DHT22;4690;52.422;13.486;2023-01-16T17:06:21;5.20;99.90
9305;DHT22;4690;52.422;13.486;2023-01-16T17:08:49;5.20;99.90
9305;DHT22;4690;52.422;13.486;2023-01-16T17:11:15;5.10;99.90
9305;DHT22;4690;52.422;13.486;2023-01-16T17:13:42;5.10;99.90
9305;DHT22;4690;52.422;13.486;2023-01-16T17:16:23;5.10;99.90
9305;DHT22;4690;52.422;13.486;2023-01-16T17:18:58;5.00;99.90
9305;DHT22;4690;52.422;13.486;2023-01-16T17:21:26;5.00;99.90
9305;DHT22;4690;52.422;13.486;2023-01-16T17:23:52;5.00;99.90
9305;DHT22;4690;52.422;13.486;2023-01-16T17:26:17;4.90;99.90
9305;DHT22;4690;52.422;13.486;2023-01-16T17:28:43;4.90;99.90
9305;DHT22;4690;52.422;13.486;2023-01-16T17:31:15;4.90;99.90
9305;DHT22;4690;52.422;13.486;2023-01-16T17:33:45;4.90;99.90
9305;DHT22;4690;52.422;13.486;2023-01-16T17:36:17;4.90;99.90
9305;DHT22;4690;52.422;13.486;2023-01-16T17:38:46;4.80;99.90
9305;DHT22;4690;52.422;13.486;2023-01-16T17:41:19;4.80;99.90
9305;DHT22;4690;52.422;13.486;2023-01-16T17:44:36;4.80;99.90
9305;DHT22;4690;52.422;13.486;2023-01-16T17:47:20;4.80;99.90
9305;DHT22;4690;52.422;13.486;2023-01-16T17:49:46;4.80;99.90
9305;DHT22;4690;52.422;13.486;2023-01-16T17:52:30;4.80;99.90
9305;DHT22;4690;52.422;13.486;2023-01-16T17:54:56;4.80;99.90
9305;DHT22;4690;52.422;13.486;2023-01-16T17:57:40;4.80;99.90
9305;DHT22;4690;52.422;13.486;2023-01-16T18:00:07;4.90;99.90
9305;DHT22;4690;52.422;13.486;2023-01-16T18:02:34;4.90;99.90
9305;DHT22;4690;52.422;13.486;2023-01-16T18:05:00;4.80;99.90
9305;DHT22;4690;52.422;13.486;2023-01-16T18:07:26;4.90;99.90
9305;DHT22;4690;52.422;13.486;2023-01-16T18:09:51;4.90;99.90
9305;DHT22;4690;52.422;13.486;2023-01-16T18:12:17;4.90;99.90
9305;DHT22;4690;52.422;13.486;2023-01-16T18:15:01;4.90;99.90
9305;DHT22;4690;52.422;13.486;2023-01-16T18:17:46;4.90;99.90
9305;DHT22;4690;52.422;13.486;2023-01-16T18:20:11;4.90;99.90
9305;DHT22;4690;52.422;13.486;2023-01-16T18:22:37;4.90;99.90
9305;DHT22;4690;52.422;13.486;2023-01-16T18:25:06;4.90;99.90
9305;DHT22;4690;52.422;13.486;2023-01-16T18:27:33;4.90;99.90
9305;DHT22;4690;52.422;13.486;2023-01-16T18:29:59;4.90;99.90
9305;DHT22;4690;52.422;13.486;2023-01-16T18:32:26;4.90;99.90
9305;DHT22;4690;52.422;13.486;2023-01-16T18:34:56;4.90;99.90
9305;DHT22;4690;52.422;13.486;2023-01-16T18:37:35;4.90;99.90
9305;DHT22;4690;52.422;13.486;2023-01-16T18:40:09;4.90;99.90
9305;DHT22;4690;52.422;13.486;2023-01-16T18:42:55;5.00;99.90
9305;DHT22;4690;52.422;13.486;2023-01-16T18:45:40;5.00;99.90
9305;DHT22;4690;52.422;13.486;2023-01-16T18:48:24;4.90;99.90
9305;DHT22;4690;52.422;13.486;2023-01-16T18:51:16;4.90;99.90
9305;DHT22;4690;52.422;13.486;2023-01-16T18:54:15;4.90;99.90
9305;DHT22;4690;52.422;13.486;2023-01-16T18:57:09;4.90;99.90
9305;DHT22;4690;52.422;13.486;2023-01-16T18:59:56;4.90;99.90
9305;DHT22;4690;52.422;13.486;2023-01-16T19:05:13;4.90;99.90
9305;DHT22;4690;52.422;13.486;2023-01-16T19:07:44;4.90;99.90
9305;DHT22;4690;52.422;13.486;2023-01-16T19:10:31;4.90;99.90
9305;DHT22;4690;52.422;13.486;2023-01-16T19:12:59;4.90;99.90
9305;DHT22;4690;52.422;13.486;2023-01-16T19:15:27;4.90;99.90
9305;DHT22;4690;52.422;13.486;2023-01-16T19:17:55;4.90;99.90
9305;DHT22;4690;52.422;13.486;2023-01-16T19:20:21;4.90;99.90
9305;DHT22;4690;52.422;13.486;2023-01-16T19:22:49;4.90;99.90
9305;DHT22;4690;52.422;13.486;2023-01-16T19:25:14;4.90;99.90
9305;DHT22;4690;52.422;13.486;2023-01-16T19:27:40;4.90;99.90
9305;DHT22;4690;52.422;13.486;2023-01-16T19:30:07;4.90;99.90